Time;durP1;ratioP1;P1;durP2;ratioP2;P2;SDS_P1;SDS_P2;PMS_P1;PMS_P2;Temp;Humidity;BMP_temperature;BMP_pressure;BME280_temperature;BME280_humidity;BME280_pressure;Samples;Min_cycle;Max_cycle;Signal;HPM_P1;HPM_P2
2023/10/17 00:01:33;;;;;;;3.67;1.85;;;;;;;22.94;47.17;101330.78;4991060;28;20051;-58
2023/10/17 00:06:58;;;;;;;4.13;1.98;;;;;;;22.92;47.44;101320.09;4990258;28;20054;-58
2023/10/17 00:09:26;;;;;;;4.15;2.15;;;;;;;22.92;47.30;101320.09;4990586;28;20058;-57
2023/10/17 00:11:58;;;;;;;4.28;2.13;;;;;;;22.92;47.26;101313.84;4991617;28;20402;-58
2023/10/17 00:14:35;;;;;;;4.18;2.20;;;;;;;22.91;47.36;101312.16;4993227;28;20053;-58
2023/10/17 00:17:04;;;;;;;3.28;1.88;;;;;;;22.93;47.26;101304.78;4992516;28;20069;-57
2023/10/17 00:19:31;;;;;;;3.38;1.80;;;;;;;22.90;47.21;101311.31;4989987;28;20087;-57
2023/10/17 00:22:02;;;;;;;3.50;1.98;;;;;;;22.91;47.40;101309.44;4992668;28;20054;-58
2023/10/17 00:24:30;;;;;;;3.17;1.70;;;;;;;22.90;47.39;101305.91;4986292;28;20050;-57
2023/10/17 00:26:57;;;;;;;3.47;1.73;;;;;;;22.91;47.45;101309.44;4991833;28;20058;-58
2023/10/17 00:29:26;;;;;;;3.47;2.20;;;;;;;22.90;47.38;101308.59;4989656;28;20050;-58
2023/10/17 00:31:53;;;;;;;4.43;2.13;;;;;;;22.91;47.48;101304.91;4992368;28;20049;-58
2023/10/17 00:34:23;;;;;;;4.32;1.92;;;;;;;22.90;47.27;101303.19;4992108;28;20042;-58
2023/10/17 00:36:51;;;;;;;4.68;2.17;;;;;;;22.91;47.45;101304.06;4990772;28;20038;-58
2023/10/17 00:39:30;;;;;;;2.42;1.55;;;;;;;22.90;47.49;101297.81;4990149;28;20051;-58
2023/10/17 00:44:38;;;;;;;6.05;2.30;;;;;;;22.90;47.40;101297.81;4991889;28;20054;-58
2023/10/17 00:47:18;;;;;;;3.77;1.70;;;;;;;22.89;47.39;101295.22;4989433;28;20527;-58
2023/10/17 00:49:49;;;;;;;3.63;2.30;;;;;;;22.90;47.26;101294.22;4992191;28;20069;-58
2023/10/17 00:52:32;;;;;;;3.45;1.50;;;;;;;22.89;47.39;101295.22;4992105;28;20473;-58
2023/10/17 00:55:01;;;;;;;4.10;2.40;;;;;;;22.90;47.44;101305.03;4989655;28;20058;-58
2023/10/17 00:57:28;;;;;;;3.65;1.75;;;;;;;22.89;47.51;101309.56;4991970;28;20046;-58
2023/10/17 00:59:57;;;;;;;3.58;1.98;;;;;;;22.89;47.28;101304.19;4990970;28;20061;-58
2023/10/17 01:02:29;;;;;;;4.80;2.00;;;;;;;22.89;47.49;101311.44;4988468;28;20123;-59
2023/10/17 01:04:59;;;;;;;4.32;2.17;;;;;;;22.88;47.59;101313.25;4993246;28;20477;-58
2023/10/17 01:07:29;;;;;;;3.97;2.08;;;;;;;22.88;47.66;101315.94;4986702;28;20043;-58
2023/10/17 01:10:14;;;;;;;3.65;1.70;;;;;;;22.88;47.53;101321.34;4992107;28;20134;-58
2023/10/17 01:13:02;;;;;;;3.45;1.83;;;;;;;22.88;47.50;101326.75;4991787;28;20047;-58
2023/10/17 01:15:32;;;;;;;4.57;2.10;;;;;;;22.88;47.57;101320.50;4992165;28;20042;-58
2023/10/17 01:18:06;;;;;;;3.33;1.88;;;;;;;22.88;47.46;101317.78;4991424;28;20516;-58
2023/10/17 01:20:35;;;;;;;3.00;1.65;;;;;;;22.88;47.37;101323.19;4989623;28;20051;-58
2023/10/17 01:23:04;;;;;;;3.10;1.83;;;;;;;22.87;47.57;101316.94;4994083;28;20061;-58
2023/10/17 01:25:38;;;;;;;2.67;1.65;;;;;;;22.87;47.51;101308.00;4991548;28;20065;-58
2023/10/17 01:28:06;;;;;;;3.60;1.80;;;;;;;22.87;47.51;101314.25;4988705;28;20050;-58
2023/10/17 01:30:34;;;;;;;3.85;2.03;;;;;;;22.87;47.24;101310.69;4989559;28;20057;-58
2023/10/17 01:33:02;;;;;;;3.22;1.80;;;;;;;22.88;47.49;101307.00;4993638;28;20057;-58
2023/10/17 01:35:30;;;;;;;4.82;1.88;;;;;;;22.87;47.51;101313.41;4990997;28;20065;-58
2023/10/17 01:37:57;;;;;;;3.60;2.03;;;;;;;22.87;47.30;101308.00;4991441;28;20053;-58
2023/10/17 01:40:28;;;;;;;2.60;1.45;;;;;;;22.87;47.44;101308.00;4991020;28;20054;-58
2023/10/17 01:43:00;;;;;;;3.92;2.15;;;;;;;22.87;47.44;101310.69;4990889;28;20413;-58
2023/10/17 01:45:29;;;;;;;3.70;2.03;;;;;;;22.87;47.46;101318.81;4990928;28;20050;-58
2023/10/17 01:47:58;;;;;;;2.80;1.67;;;;;;;22.86;47.24;101304.47;4987228;28;20058;-58
2023/10/17 01:50:26;;;;;;;3.55;1.85;;;;;;;22.87;47.22;101308.84;4994069;28;20058;-58
2023/10/17 01:52:54;;;;;;;2.92;1.80;;;;;;;22.87;47.36;101308.00;4990762;28;20409;-58
2023/10/17 01:55:27;;;;;;;3.00;1.88;;;;;;;22.87;47.47;101313.41;4990506;28;20054;-58
2023/10/17 01:57:57;;;;;;;4.45;2.00;;;;;;;22.86;47.30;101307.16;4988600;28;20054;-58
2023/10/17 02:00:38;;;;;;;4.82;1.83;;;;;;;22.86;47.51;101312.56;4993356;28;20050;-58
2023/10/17 02:03:06;;;;;;;4.22;1.80;;;;;;;22.87;47.46;101318.81;4990824;28;20212;-58
2023/10/17 02:05:34;;;;;;;3.33;1.60;;;;;;;22.86;47.31;101315.25;4987636;28;20494;-57
2023/10/17 02:08:02;;;;;;;3.10;1.67;;;;;;;22.86;47.40;101311.72;4990483;28;20058;-57
2023/10/17 02:10:30;;;;;;;2.97;1.90;;;;;;;22.86;47.65;101300.91;4990601;28;20050;-57
2023/10/17 02:12:57;;;;;;;3.05;1.73;;;;;;;22.86;47.61;101309.84;4990145;28;20047;-58
2023/10/17 02:15:26;;;;;;;4.38;2.10;;;;;;;22.86;47.67;101301.75;4990907;28;20054;-58
2023/10/17 02:17:57;;;;;;;3.55;1.95;;;;;;;22.86;47.62;101298.22;4990584;28;20050;-57
2023/10/17 02:23:01;;;;;;;3.70;1.98;;;;;;;22.85;47.69;101301.88;4985637;28;20050;-58
2023/10/17 02:25:34;;;;;;;3.67;2.25;;;;;;;22.84;47.50;101300.19;4988096;28;20051;-58
2023/10/17 02:28:02;;;;;;;;;;;;;;;22.82;47.61;101305.75;4991065;28;20046;-58
2023/10/17 02:30:29;;;;;;;3.85;2.00;;;;;;;22.83;47.78;101298.50;4989321;28;19929;-58
2023/10/17 02:32:56;;;;;;;3.22;1.65;;;;;;;22.84;47.50;101301.03;4986407;28;20073;-57
2023/10/17 02:35:39;;;;;;;3.10;1.75;;;;;;;22.83;47.59;101302.03;4988593;28;20504;-57
2023/10/17 02:38:08;;;;;;;3.17;1.63;;;;;;;22.83;47.52;101290.38;4990149;28;20062;-57
2023/10/17 02:40:40;;;;;;;4.32;2.03;;;;;;;22.82;47.72;101294.09;4989367;28;20536;-58
2023/10/17 02:43:12;;;;;;;4.38;2.20;;;;;;;22.83;47.68;101293.09;4989828;28;20043;-58
2023/10/17 02:45:43;;;;;;;3.40;1.58;;;;;;;22.81;47.72;101292.38;4989977;28;20053;-58
2023/10/17 02:48:29;;;;;;;5.65;2.40;;;;;;;22.83;47.56;101299.34;4989550;28;20058;-58
2023/10/17 02:51:00;;;;;;;;;;;;;;;22.80;47.60;101293.38;5006754;28;20081;-58
2023/10/17 02:53:34;;;;;;;2.58;1.48;;;;;;;22.80;47.60;101291.50;4992719;28;19945;-58
2023/10/17 02:56:23;;;;;;;3.67;2.15;;;;;;;22.80;47.69;101287.97;4989995;28;20051;-58
2023/10/17 02:59:06;;;;;;;2.67;1.55;;;;;;;22.80;47.60;101288.81;5002065;28;20062;-58
2023/10/17 03:01:38;;;;;;;3.05;1.60;;;;;;;22.80;47.63;101294.22;4993122;28;20055;-58
2023/10/17 03:04:12;;;;;;;5.38;2.10;;;;;;;22.81;47.75;101297.75;4990307;28;20417;-58
2023/10/17 03:06:45;;;;;;;3.90;2.13;;;;;;;22.80;47.70;101302.31;4992607;28;20050;-57
2023/10/17 03:09:16;;;;;;;3.17;1.73;;;;;;;22.81;47.79;101303.16;4996492;28;20492;-58
2023/10/17 03:14:25;;;;;;;2.90;1.48;;;;;;;22.80;47.70;101304.16;4990715;28;20401;-57
2023/10/17 03:16:54;;;;;;;3.28;1.52;;;;;;;22.80;47.83;101301.47;4994476;28;20058;-57
2023/10/17 03:19:27;;;;;;;2.65;1.48;;;;;;;22.80;47.75;101296.91;4994049;28;20068;-58
2023/10/17 03:22:16;;;;;;;4.35;1.80;;;;;;;22.79;47.77;101288.97;4993837;28;20055;-58
2023/10/17 03:24:44;;;;;;;5.00;1.95;;;;;;;22.79;47.84;101287.13;4993499;28;20054;-58
2023/10/17 03:30:14;;;;;;;3.67;1.85;;;;;;;22.78;47.69;101288.13;5001908;28;20050;-58
2023/10/17 03:35:27;;;;;;;3.70;1.60;;;;;;;22.79;47.75;101288.97;4983745;28;20050;-57
2023/10/17 03:37:55;;;;;;;2.88;1.38;;;;;;;22.78;47.79;101280.03;4989829;28;20497;-57
2023/10/17 03:40:41;;;;;;;3.42;1.75;;;;;;;22.77;47.80;101283.72;4992285;28;20054;-58
2023/10/17 03:43:11;;;;;;;4.03;1.77;;;;;;;22.77;47.64;101281.03;4990499;28;20057;-58
2023/10/17 03:45:43;;;;;;;4.10;2.03;;;;;;;22.78;47.66;101287.28;4991829;28;20051;-58
2023/10/17 03:48:14;;;;;;;3.97;1.83;;;;;;;22.77;47.68;101289.13;4992030;28;20050;-58
2023/10/17 03:53:15;;;;;;;3.80;1.75;;;;;;;22.76;47.74;101291.94;4993331;28;20466;-58
2023/10/17 03:55:44;;;;;;;4.82;1.85;;;;;;;22.76;47.64;101295.50;4989926;28;20057;-58
2023/10/17 04:00:53;;;;;;;3.78;1.52;;;;;;;22.76;47.74;101311.69;4986826;28;20050;-57
2023/10/17 04:03:21;;;;;;;2.42;1.77;;;;;;;22.76;47.69;101310.84;4991215;28;20042;-57
2023/10/17 04:06:41;;;;;;;3.72;1.65;;;;;;;22.76;47.63;101310.84;4990843;28;20054;-57
2023/10/17 04:09:15;;;;;;;3.28;1.60;;;;;;;22.76;47.77;101305.44;4988958;28;20397;-57
2023/10/17 04:11:49;;;;;;;3.90;1.75;;;;;;;22.76;47.65;101302.75;4990938;28;20433;-58
2023/10/17 04:14:17;;;;;;;2.90;1.50;;;;;;;22.75;47.71;101307.28;4992773;28;20046;-58
2023/10/17 04:16:46;;;;;;;4.53;1.50;;;;;;;22.74;47.81;101305.59;4992617;28;20465;-58
2023/10/17 04:19:20;;;;;;;2.92;1.63;;;;;;;22.75;47.70;101314.56;4990712;28;20058;-57
2023/10/17 04:21:51;;;;;;;3.63;1.55;;;;;;;22.75;47.56;101326.19;4992344;28;20065;-58
2023/10/17 04:24:34;;;;;;;3.60;1.40;;;;;;;22.75;47.74;101325.34;4987077;28;20054;-57
2023/10/17 04:27:07;;;;;;;3.40;1.60;;;;;;;22.76;47.91;101321.66;4990494;28;20492;-57
2023/10/17 04:29:34;;;;;;;3.80;1.70;;;;;;;22.75;47.75;101309.16;4991740;28;20401;-58
2023/10/17 04:32:04;;;;;;;3.38;1.70;;;;;;;22.75;47.62;101319.94;4993003;28;20409;-58
2023/10/17 04:34:32;;;;;;;3.10;1.70;;;;;;;22.74;47.84;101316.41;4993059;28;20050;-58
2023/10/17 04:37:03;;;;;;;3.58;1.60;;;;;;;22.74;47.91;101302.91;4989017;28;20050;-58
2023/10/17 04:39:36;;;;;;;3.95;1.63;;;;;;;22.74;47.79;101305.59;4988022;28;20440;-58
2023/10/17 04:42:05;;;;;;;5.22;1.80;;;;;;;22.73;47.87;101300.31;4992450;28;20050;-58
2023/10/17 04:44:39;;;;;;;3.13;1.80;;;;;;;22.74;47.84;101296.66;4991485;28;20057;-58
2023/10/17 04:47:26;;;;;;;4.43;1.17;;;;;;;22.73;47.65;101297.63;4990362;28;20490;-58
2023/10/17 04:49:54;;;;;;;3.35;2.00;;;;;;;22.74;47.73;101302.06;4992531;28;20054;-58
2023/10/17 04:52:40;;;;;;;2.88;1.33;;;;;;;22.73;47.95;101300.31;4985221;28;20422;-58
2023/10/17 04:56:01;;;;;;;2.65;1.45;;;;;;;22.72;47.71;101302.19;4991207;28;20046;-58
2023/10/17 04:58:30;;;;;;;2.45;1.42;;;;;;;22.72;48.03;101296.78;4987338;28;20162;-58
2023/10/17 05:03:32;;;;;;;2.97;1.40;;;;;;;22.73;47.77;101305.72;4991719;28;20049;-57
2023/10/17 05:09:00;;;;;;;3.03;1.52;;;;;;;22.71;47.78;101295.94;4988851;28;20058;-58
2023/10/17 06:18:08;;;;;;;3.22;1.92;;;;;;;21.96;42.68;101355.84;4987305;28;20050;-58
2023/10/17 06:24:06;;;;;;;4.45;2.58;;;;;;;21.89;42.73;101360.94;4990305;28;20054;-57
2023/10/17 06:34:21;;;;;;;4.50;2.05;;;;;;;21.85;42.13;101358.63;4984511;28;20046;-57
2023/10/17 06:37:00;;;;;;;5.15;2.22;;;;;;;21.82;42.33;101354.38;4988026;28;20046;-57
2023/10/17 06:39:36;;;;;;;3.88;1.95;;;;;;;21.81;42.42;101360.75;4990258;28;20046;-58
2023/10/17 06:42:27;;;;;;;5.43;2.45;;;;;;;21.79;42.27;101360.00;4978528;28;20051;-57
2023/10/17 06:45:01;;;;;;;4.65;2.10;;;;;;;21.79;42.18;101361.88;4986376;28;20073;-57
2023/10/17 06:47:31;;;;;;;4.07;2.47;;;;;;;21.78;42.31;101368.25;4990334;28;20143;-57
2023/10/17 06:53:15;;;;;;;3.25;2.15;;;;;;;21.76;42.56;101371.09;4988853;28;20069;-58
2023/10/17 06:55:29;;;;;;;6.90;2.35;;;;;;;21.76;42.49;101371.09;4993088;28;20054;-58
2023/10/17 06:58:08;;;;;;;3.58;1.98;;;;;;;21.76;42.41;101370.25;4989937;28;20053;-58
2023/10/17 07:00:50;;;;;;;3.03;1.85;;;;;;;21.76;42.37;101365.69;4986520;28;20046;-58
2023/10/17 07:03:25;;;;;;;3.65;2.35;;;;;;;21.77;42.24;101374.63;4989812;28;20050;-58
2023/10/17 07:06:03;;;;;;;4.07;1.98;;;;;;;21.78;42.39;101370.94;4989862;28;20054;-58
2023/10/17 07:08:36;;;;;;;5.95;2.30;;;;;;;21.79;42.34;101378.03;4986254;28;20140;-58
2023/10/17 07:11:38;;;;;;;3.40;2.15;;;;;;;21.80;42.29;101385.16;4990240;28;20061;-57
2023/10/17 07:16:34;;;;;;;3.58;2.20;;;;;;;21.78;42.13;101392.50;4988741;28;20046;-59
2023/10/17 07:24:33;;;;;;;4.68;3.10;;;;;;;21.70;41.28;101391.31;4987509;28;20047;-62
2023/10/17 07:27:11;;;;;;;4.35;2.47;;;;;;;21.71;41.40;101392.19;4989184;28;20050;-59
2023/10/17 07:29:45;;;;;;;5.75;2.30;;;;;;;21.73;41.28;101382.97;4989303;28;20046;-63
2023/10/17 07:32:16;;;;;;;4.20;2.80;;;;;;;21.75;41.04;101385.53;4986844;28;20057;-63
2023/10/17 07:34:44;;;;;;;5.28;2.65;;;;;;;21.77;41.04;101391.66;4988187;28;20047;-62
2023/10/17 07:40:18;;;;;;;5.97;3.00;;;;;;;21.78;41.44;101404.13;4990630;28;20055;-56
2023/10/17 07:42:46;;;;;;;4.35;2.30;;;;;;;21.80;41.09;101401.31;4987580;28;20057;-50
2023/10/17 07:45:14;;;;;;;4.13;2.38;;;;;;;21.82;41.18;101396.63;4988993;28;20043;-47
2023/10/17 07:47:43;;;;;;;6.03;2.67;;;;;;;21.83;40.97;101404.56;4986633;28;20432;-55
2023/10/17 07:50:14;;;;;;;5.25;2.63;;;;;;;21.83;40.82;101393.78;4989290;28;20054;-62
2023/10/17 07:52:49;;;;;;;3.75;2.05;;;;;;;21.83;40.61;101399.19;4992429;28;20057;-63
2023/10/17 07:55:19;;;;;;;4.30;2.33;;;;;;;21.80;40.62;101398.63;4992033;28;20042;-61
2023/10/17 07:57:51;;;;;;;4.95;2.50;;;;;;;21.74;40.45;101397.31;4989789;28;20047;-62
2023/10/17 08:00:36;;;;;;;4.03;2.40;;;;;;;21.69;40.45;101397.72;4992880;28;20381;-62
2023/10/17 08:03:09;;;;;;;7.43;2.45;;;;;;;21.63;40.17;101402.75;4992931;28;20373;-63
2023/10/17 08:05:37;;;;;;;4.72;2.40;;;;;;;21.58;39.92;101405.00;4988270;28;20386;-63
2023/10/17 08:08:08;;;;;;;4.90;2.60;;;;;;;21.51;39.85;101398.44;4992380;28;20057;-63
2023/10/17 08:10:36;;;;;;;5.45;2.40;;;;;;;21.47;39.83;101403.25;4989548;28;20394;-63
2023/10/17 08:13:03;;;;;;;4.05;2.55;;;;;;;21.43;39.73;101401.78;4991318;28;20050;-63
2023/10/17 08:15:43;;;;;;;3.95;2.42;;;;;;;21.42;39.55;101397.41;4992148;28;20524;-63
2023/10/17 08:18:17;;;;;;;4.13;2.63;;;;;;;21.41;39.56;101406.47;4992843;28;20105;-63
2023/10/17 08:20:45;;;;;;;5.03;2.60;;;;;;;21.42;39.61;101402.78;4991075;28;20144;-63
2023/10/17 08:23:13;;;;;;;5.15;2.10;;;;;;;21.40;39.64;101410.16;4991414;28;20058;-63
2023/10/17 08:25:52;;;;;;;5.43;2.63;;;;;;;21.40;39.45;101412.84;4991964;28;20397;-62
2023/10/17 08:28:34;;;;;;;4.20;2.00;;;;;;;21.38;39.23;101404.88;4985831;28;20046;-63
2023/10/17 08:31:18;;;;;;;3.50;1.88;;;;;;;21.36;39.09;101408.72;4990278;28;20118;-64
2023/10/17 08:42:05;;;;;;;4.90;2.10;;;;;;;21.37;39.05;101423.88;4988853;28;20065;-64
2023/10/17 08:44:38;;;;;;;3.00;1.67;;;;;;;21.38;39.04;101420.19;4990467;28;20073;-65
2023/10/17 08:47:07;;;;;;;4.30;2.05;;;;;;;21.37;38.78;101419.34;4989927;28;20073;-64
2023/10/17 08:49:35;;;;;;;4.82;1.88;;;;;;;21.40;38.86;101426.31;4991538;28;20038;-63
2023/10/17 08:52:03;;;;;;;3.75;1.90;;;;;;;21.40;38.86;101418.25;4991621;28;20390;-63
2023/10/17 08:54:32;;;;;;;3.40;1.77;;;;;;;21.38;38.89;101423.75;4989374;28;20050;-63
2023/10/17 08:57:01;;;;;;;3.88;1.92;;;;;;;21.38;39.03;101426.44;4990443;28;20099;-63
2023/10/17 09:02:03;;;;;;;3.05;1.73;;;;;;;21.38;39.01;101414.81;4991439;28;20073;-64
2023/10/17 09:04:33;;;;;;;4.55;2.00;;;;;;;21.37;39.16;101413.09;4986925;28;20668;-65
2023/10/17 09:07:08;;;;;;;2.72;1.58;;;;;;;21.38;38.94;101414.81;4987433;28;20046;-64
2023/10/17 09:09:35;;;;;;;4.53;2.05;;;;;;;21.38;39.06;101410.28;4989131;28;20412;-63
2023/10/17 09:12:22;;;;;;;4.72;2.47;;;;;;;21.37;39.13;101400.50;4988067;28;20050;-63
2023/10/17 09:14:49;;;;;;;3.83;1.77;;;;;;;21.37;39.32;101413.09;4991417;28;20046;-63
2023/10/17 09:17:17;;;;;;;3.70;1.75;;;;;;;21.38;39.28;101409.41;4991350;28;20050;-63
2023/10/17 09:19:46;;;;;;;4.57;2.00;;;;;;;21.42;39.38;101411.72;4991569;28;20050;-63
2023/10/17 09:22:17;;;;;;;3.42;1.75;;;;;;;21.44;39.51;101403.53;4987660;28;20050;-63
2023/10/17 09:24:50;;;;;;;4.10;2.05;;;;;;;21.45;39.63;101395.31;4987016;28;20049;-63
2023/10/17 09:27:19;;;;;;;4.90;2.00;;;;;;;21.48;39.80;101381.56;4988466;28;20050;-63
2023/10/17 09:29:52;;;;;;;3.47;1.80;;;;;;;21.48;39.81;101381.56;4989921;28;20413;-63
2023/10/17 09:32:32;;;;;;;;;;;;;;;21.47;39.86;101379.88;4989773;28;20050;-62
2023/10/17 09:35:18;;;;;;;3.60;1.48;;;;;;;21.53;40.05;101385.72;4990721;28;19921;-62
2023/10/17 09:37:51;;;;;;;3.20;1.90;;;;;;;21.51;40.20;101377.75;4988435;28;20050;-63
2023/10/17 09:40:29;;;;;;;4.57;1.77;;;;;;;21.51;40.29;101375.03;5001735;28;20042;-64
2023/10/17 09:42:58;;;;;;;7.05;1.70;;;;;;;21.55;40.28;101370.25;4991044;28;20058;-65
2023/10/17 09:45:36;;;;;;;3.33;1.48;;;;;;;21.57;40.14;101371.84;4993427;28;20038;-65
2023/10/17 09:48:05;;;;;;;3.85;1.33;;;;;;;21.59;40.37;101366.31;4988974;28;20502;-65
2023/10/17 09:50:37;;;;;;;3.05;1.45;;;;;;;21.59;40.40;101374.38;4990797;28;20057;-63
2023/10/17 09:53:13;;;;;;;3.92;2.03;;;;;;;21.59;40.46;101375.25;4990975;28;20065;-63
2023/10/17 09:55:48;;;;;;;3.00;1.58;;;;;;;21.57;40.58;101366.44;4988698;28;20054;-63
2023/10/17 09:58:24;;;;;;;3.13;1.50;;;;;;;21.60;40.53;101368.03;4987415;28;20400;-63
2023/10/17 10:00:56;;;;;;;4.18;1.52;;;;;;;21.61;40.66;101370.59;4994248;28;20050;-63
2023/10/17 10:03:25;;;;;;;2.70;1.50;;;;;;;21.62;40.69;101369.59;4987653;28;20053;-62
2023/10/17 10:05:57;;;;;;;2.75;1.45;;;;;;;21.64;40.68;101370.31;4989437;28;20066;-63
2023/10/17 10:08:32;;;;;;;6.77;1.60;;;;;;;21.66;40.70;101370.19;4990503;28;20053;-63
2023/10/17 10:11:01;;;;;;;2.83;1.20;;;;;;;21.64;40.87;101375.72;4990264;28;20405;-65
2023/10/17 10:13:31;;;;;;;2.15;1.10;;;;;;;21.65;40.83;101363.94;4987599;28;20049;-65
2023/10/17 10:16:03;;;;;;;3.00;1.60;;;;;;;21.65;40.95;101360.38;4990109;28;20411;-65
2023/10/17 10:18:52;;;;;;;2.50;1.30;;;;;;;21.63;41.08;101357.84;4990584;28;20058;-65
2023/10/17 10:21:22;;;;;;;3.95;1.17;;;;;;;21.65;41.23;101353.16;4987344;28;20058;-63
2023/10/17 10:23:54;;;;;;;4.80;1.25;;;;;;;21.65;41.02;101347.78;4990331;28;20507;-62
2023/10/17 10:26:22;;;;;;;3.17;1.42;;;;;;;21.64;41.05;101346.06;4989963;28;20053;-63
2023/10/17 10:28:56;;;;;;;3.70;1.35;;;;;;;21.65;41.06;101331.59;4989215;28;20072;-63
2023/10/17 10:31:33;;;;;;;2.88;1.58;;;;;;;21.64;40.95;101335.28;4989102;28;20054;-63
2023/10/17 10:34:01;;;;;;;3.10;1.25;;;;;;;21.62;41.22;101331.88;4989944;28;20061;-63
2023/10/17 10:36:28;;;;;;;4.25;1.70;;;;;;;21.65;41.25;101337.00;4989938;28;20485;-62
2023/10/17 10:39:08;;;;;;;2.40;1.20;;;;;;;21.63;41.34;101325.50;4983633;28;20062;-63
2023/10/17 10:41:36;;;;;;;4.30;1.20;;;;;;;21.65;41.31;101320.81;4987022;28;20050;-65
2023/10/17 10:44:03;;;;;;;3.92;1.55;;;;;;;21.67;41.28;101317.97;4990257;28;20070;-65
2023/10/17 10:46:31;;;;;;;2.92;1.40;;;;;;;21.69;41.33;101321.41;4988517;28;20516;-65
2023/10/17 10:48:59;;;;;;;2.30;1.23;;;;;;;21.68;41.39;101317.00;4988147;28;20402;-63
2023/10/17 10:51:29;;;;;;;2.20;1.05;;;;;;;21.64;41.36;101305.66;4989485;28;20057;-62
2023/10/17 10:53:57;;;;;;;4.20;1.42;;;;;;;21.66;41.38;101302.81;4989564;28;20045;-62
2023/10/17 10:56:25;;;;;;;2.45;1.30;;;;;;;21.64;41.40;101300.25;4987710;28;20042;-63
2023/10/17 10:58:57;;;;;;;3.78;1.25;;;;;;;21.64;41.46;101296.72;4988063;28;20039;-63
2023/10/17 11:01:25;;;;;;;2.63;1.15;;;;;;;21.63;41.37;101290.47;4986556;28;20058;-65
2023/10/17 11:03:54;;;;;;;3.40;1.27;;;;;;;21.64;41.53;101292.19;4989130;28;20054;-65
2023/10/17 11:06:25;;;;;;;3.47;1.45;;;;;;;21.63;41.29;101279.69;4986525;28;20050;-65
2023/10/17 11:08:55;;;;;;;3.00;1.10;;;;;;;21.64;41.48;101280.56;4985327;28;20077;-57
2023/10/17 11:11:23;;;;;;;2.35;1.33;;;;;;;21.65;41.54;101282.25;4989534;28;20076;-57
2023/10/17 11:13:54;;;;;;;2.63;1.27;;;;;;;21.67;41.24;101277.56;4989658;28;20516;-57
2023/10/17 11:16:24;;;;;;;2.65;1.10;;;;;;;21.70;41.76;101280.84;4986808;28;20050;-58
2023/10/17 11:18:54;;;;;;;3.17;1.48;;;;;;;21.72;41.94;101273.50;4989967;28;20058;-59
2023/10/17 11:21:23;;;;;;;2.95;1.42;;;;;;;21.75;41.85;101269.66;4990520;28;21359;-60
2023/10/17 11:24:04;;;;;;;2.95;1.02;;;;;;;21.77;41.90;101274.91;4988950;28;20057;-60
2023/10/17 11:26:35;;;;;;;3.20;1.10;;;;;;;21.78;41.82;101268.53;4988730;28;20050;-60
2023/10/17 11:29:04;;;;;;;3.22;1.20;;;;;;;21.80;41.72;101263.88;4993818;28;20054;-57
2023/10/17 11:31:32;;;;;;;5.03;1.50;;;;;;;21.80;41.92;101262.03;4989727;28;20050;-56
2023/10/17 11:34:04;;;;;;;6.00;1.60;;;;;;;21.81;41.89;101263.72;4992376;28;20386;-57
2023/10/17 11:36:46;;;;;;;5.65;2.00;;;;;;;21.81;41.91;101261.03;4984980;28;20465;-57
2023/10/17 11:39:18;;;;;;;3.67;1.70;;;;;;;21.83;41.83;101252.78;4983646;28;20062;-57
2023/10/17 11:41:56;;;;;;;3.63;1.75;;;;;;;21.82;42.01;101253.78;4989296;28;20051;-57
2023/10/17 11:44:27;;;;;;;4.38;2.00;;;;;;;21.82;41.89;101246.56;4984073;28;20046;-57
2023/10/17 11:47:01;;;;;;;4.82;2.00;;;;;;;21.83;41.94;101247.41;4988408;28;20047;-57
2023/10/17 11:49:41;;;;;;;5.75;2.05;;;;;;;21.84;41.80;101249.13;4984848;28;20414;-59
2023/10/17 11:52:10;;;;;;;5.68;2.28;;;;;;;21.87;42.08;101244.28;4987867;28;20094;-60
2023/10/17 11:55:00;;;;;;;4.22;2.05;;;;;;;21.84;42.00;101236.50;4994613;28;20061;-60
2023/10/17 11:57:29;;;;;;;3.38;1.88;;;;;;;21.83;41.86;101225.84;4984163;28;20058;-60
2023/10/17 12:02:48;;;;;;;3.38;1.42;;;;;;;21.80;41.28;101227.00;4992217;28;20054;-58
2023/10/17 12:05:21;;;;;;;2.88;1.20;;;;;;;21.76;41.00;101214.78;4983922;28;20150;-58
2023/10/17 12:07:49;;;;;;;;;;;;;;;21.70;40.80;101218.84;4986854;28;20034;-59
2023/10/17 12:10:17;;;;;;;2.80;1.25;;;;;;;21.72;40.97;101218.75;4987610;28;19922;-59
2023/10/17 12:12:45;;;;;;;2.90;1.13;;;;;;;21.71;41.01;101220.59;4991991;28;20421;-60
2023/10/17 12:15:13;;;;;;;3.55;1.10;;;;;;;21.70;41.06;101208.09;4983321;28;20051;-59
2023/10/17 12:17:41;;;;;;;4.72;1.30;;;;;;;21.71;41.17;101217.91;4986382;28;20038;-60
2023/10/17 12:20:11;;;;;;;2.58;1.02;;;;;;;21.70;41.37;101208.09;4987537;28;20047;-60
2023/10/17 12:22:42;;;;;;;2.50;1.08;;;;;;;21.73;41.38;101198.88;4983389;28;20057;-60
2023/10/17 12:25:16;;;;;;;2.83;1.40;;;;;;;21.72;41.30;101198.03;4983544;28;20065;-59
2023/10/17 12:27:49;;;;;;;2.42;0.98;;;;;;;21.72;41.43;101198.03;4987215;28;20413;-58
2023/10/17 12:30:22;;;;;;;4.35;1.20;;;;;;;21.71;41.50;101190.94;4985253;28;20054;-61
2023/10/17 12:32:50;;;;;;;3.25;1.20;;;;;;;21.72;41.64;101192.66;4995004;28;20081;-60
2023/10/17 12:35:21;;;;;;;2.95;1.25;;;;;;;21.72;41.57;101183.72;4990135;28;20053;-58
2023/10/17 12:37:52;;;;;;;3.55;1.38;;;;;;;21.72;41.58;101181.00;4987048;28;20046;-58
2023/10/17 12:40:23;;;;;;;2.13;0.95;;;;;;;21.73;41.78;101186.25;4991340;28;20039;-58
2023/10/17 12:42:55;;;;;;;2.03;1.13;;;;;;;21.72;41.75;101175.63;4984174;28;20164;-58
2023/10/17 12:45:24;;;;;;;2.40;1.20;;;;;;;21.72;41.64;101171.09;4987817;28;20058;-58
2023/10/17 12:47:54;;;;;;;3.20;1.20;;;;;;;21.72;41.78;101173.78;4984733;28;20045;-61
2023/10/17 12:50:21;;;;;;;2.72;1.08;;;;;;;21.74;42.17;101168.25;4986892;28;20050;-59
2023/10/17 12:52:49;;;;;;;2.28;1.08;;;;;;;21.75;43.86;101174.47;4984161;28;20065;-59
2023/10/17 12:55:19;;;;;;;2.60;1.10;;;;;;;21.75;45.80;101161.00;4987820;28;20050;-59
2023/10/17 12:57:46;;;;;;;2.30;1.17;;;;;;;21.75;47.46;101155.63;4986347;28;20046;-59
2023/10/17 13:00:15;;;;;;;3.88;1.33;;;;;;;21.72;48.52;101160.31;4983346;28;20363;-59
2023/10/17 13:02:42;;;;;;;2.80;0.75;;;;;;;21.70;49.06;101146.09;4983834;28;20512;-60
2023/10/17 13:05:12;;;;;;;3.03;1.20;;;;;;;21.69;49.24;101149.81;5003312;28;20054;-60
2023/10/17 13:07:41;;;;;;;3.47;1.20;;;;;;;21.68;49.10;101149.94;5003278;28;20050;-60
2023/10/17 13:10:11;;;;;;;1.92;0.80;;;;;;;21.66;49.09;101144.69;5005479;28;20061;-52
2023/10/17 13:12:39;;;;;;;3.25;1.10;;;;;;;21.65;49.29;101145.69;5001940;28;20055;-50
2023/10/17 13:15:08;;;;;;;2.97;0.90;;;;;;;21.65;49.74;101148.38;5000051;28;20065;-53
2023/10/17 13:17:36;;;;;;;2.25;1.02;;;;;;;21.64;49.34;101144.00;4995251;28;20046;-50
2023/10/17 13:20:07;;;;;;;2.45;1.05;;;;;;;21.64;48.91;101133.22;5002316;28;20512;-51
2023/10/17 13:22:49;;;;;;;2.42;1.10;;;;;;;21.63;49.46;101139.59;4997012;28;20057;-50
2023/10/17 13:25:19;;;;;;;2.30;1.00;;;;;;;21.61;49.48;101136.19;4995298;28;20050;-52
2023/10/17 13:27:47;;;;;;;2.10;1.00;;;;;;;21.62;49.60;101135.19;4998461;28;20507;-53
2023/10/17 13:30:15;;;;;;;2.63;1.00;;;;;;;21.62;50.08;101126.25;4998425;28;20046;-51
2023/10/17 13:32:42;;;;;;;2.95;1.45;;;;;;;21.61;50.19;101124.56;4994646;28;20046;-52
2023/10/17 13:35:09;;;;;;;2.55;1.00;;;;;;;21.61;48.73;101128.09;4989046;28;20378;-50
2023/10/17 13:37:48;;;;;;;2.25;0.82;;;;;;;21.60;48.55;101114.78;4995568;28;20572;-52
2023/10/17 13:40:15;;;;;;;2.42;1.00;;;;;;;21.61;49.31;101119.16;4994498;28;20042;-54
2023/10/17 13:42:43;;;;;;;2.33;1.10;;;;;;;21.60;48.78;101128.25;4992108;28;20046;-51
2023/10/17 13:45:13;;;;;;;2.65;1.00;;;;;;;21.59;47.82;101121.13;4989151;28;20133;-50
2023/10/17 13:47:41;;;;;;;4.45;0.88;;;;;;;21.59;47.79;101123.81;4991403;28;20102;-52
2023/10/17 13:50:13;;;;;;;2.55;1.10;;;;;;;21.60;47.89;101122.84;4990148;28;20046;-50
2023/10/17 13:52:41;;;;;;;2.35;1.02;;;;;;;21.59;48.24;101113.03;4989454;28;20054;-53
2023/10/17 13:55:14;;;;;;;3.20;1.40;;;;;;;21.60;48.68;101107.53;4991363;28;20054;-53
2023/10/17 13:57:46;;;;;;;4.75;1.40;;;;;;;21.59;48.88;101104.97;4995738;28;20042;-53
2023/10/17 14:00:19;;;;;;;2.67;1.10;;;;;;;21.58;48.04;101098.72;4994873;28;20042;-50
2023/10/17 14:02:47;;;;;;;4.22;1.45;;;;;;;21.57;48.26;101101.56;4994995;28;20085;-51